createdAt,value
2024-04-23T00:02:13.199Z,100233.70
2024-04-23T00:04:39.897Z,100231.23
2024-04-23T00:07:06.535Z,100228.95
2024-04-23T00:09:33.211Z,100227.90
2024-04-23T00:11:59.796Z,100227.39
2024-04-23T00:14:26.388Z,100223.16
2024-04-23T00:17:05.170Z,100224.18
2024-04-23T00:19:32.314Z,100215.81
2024-04-23T00:21:59.027Z,100217.00
2024-04-23T00:24:25.950Z,100213.89
2024-04-23T00:27:00.430Z,100208.52
2024-04-23T00:29:28.564Z,100201.70
2024-04-23T00:31:55.668Z,100200.44
2024-04-23T00:34:22.765Z,100195.48
2024-04-23T00:36:57.825Z,100194.52
2024-04-23T00:39:24.964Z,100195.00
2024-04-23T00:41:53.853Z,100189.83
2024-04-23T00:44:20.588Z,100190.95
2024-04-23T00:46:47.829Z,100192.09
2024-04-23T00:49:15.228Z,100189.50
2024-04-23T00:51:44.712Z,100193.60
2024-04-23T00:54:11.537Z,100200.04
2024-04-23T00:56:38.708Z,100202.67
2024-04-23T00:59:07.183Z,100207.87
2024-04-23T01:01:37.105Z,100209.25
2024-04-23T01:04:06.533Z,100206.05
2024-04-23T01:06:33.659Z,100203.17
2024-04-23T01:09:00.439Z,100198.58
2024-04-23T01:11:27.473Z,100197.92
2024-04-23T01:13:54.231Z,100193.96
2024-04-23T01:16:23.468Z,100190.33
2024-04-23T01:18:51.093Z,100189.80
2024-04-23T01:21:19.911Z,100187.11
2024-04-23T01:23:53.395Z,100185.80
2024-04-23T01:26:21.070Z,100184.02
2024-04-23T01:28:47.961Z,100183.80
2024-04-23T01:31:15.543Z,100182.58
2024-04-23T01:33:43.066Z,100178.40
2024-04-23T01:36:10.476Z,100175.23
2024-04-23T01:38:37.991Z,100175.08
2024-04-23T01:41:05.911Z,100175.46
2024-04-23T01:43:33.095Z,100176.52
2024-04-23T01:46:00.821Z,100174.36
2024-04-23T01:48:27.587Z,100170.55
2024-04-23T01:50:54.480Z,100167.91
2024-04-23T01:53:21.068Z,100170.37
2024-04-23T01:55:50.208Z,100163.71
2024-04-23T01:58:17.105Z,100161.18
2024-04-23T02:00:45.907Z,100162.39
2024-04-23T02:03:14.152Z,100159.60
2024-04-23T02:05:41.543Z,100157.83
2024-04-23T02:08:08.444Z,100152.51
2024-04-23T02:10:38.924Z,100149.05
2024-04-23T02:13:06.191Z,100144.92
2024-04-23T02:15:32.780Z,100142.48
2024-04-23T02:17:59.524Z,100139.64
2024-04-23T02:20:26.267Z,100139.21
2024-04-23T02:22:53.008Z,100138.33
2024-04-23T02:25:23.389Z,100134.91
2024-04-23T02:27:50.659Z,100131.04
2024-04-23T02:30:17.363Z,100130.50
2024-04-23T02:32:44.216Z,100129.02
2024-04-23T02:35:10.948Z,100126.86
2024-04-23T02:37:37.648Z,100125.38
2024-04-23T02:40:06.831Z,100124.65
2024-04-23T02:42:33.836Z,100120.80
2024-04-23T02:45:00.468Z,100116.42
2024-04-23T02:47:27.233Z,100111.69
2024-04-23T02:49:54.010Z,100110.57
2024-04-23T02:52:20.639Z,100104.90
2024-04-23T02:54:47.254Z,100103.91
2024-04-23T02:57:13.918Z,100099.39
2024-04-23T02:59:40.517Z,100093.48
2024-04-23T03:02:08.824Z,100092.19
2024-04-23T03:04:35.583Z,100087.41
2024-04-23T03:07:02.816Z,100082.55
2024-04-23T03:09:29.444Z,100077.71
2024-04-23T03:11:56.586Z,100076.02
2024-04-23T03:14:23.203Z,100067.23
2024-04-23T03:16:49.853Z,100064.53
2024-04-23T03:19:16.547Z,100064.69
2024-04-23T03:21:57.203Z,100068.89
2024-04-23T03:24:27.260Z,100069.41
2024-04-23T03:26:53.882Z,100066.09
2024-04-23T03:29:20.882Z,100069.05
2024-04-23T03:31:48.246Z,100069.94
2024-04-23T03:34:14.986Z,100070.90
2024-04-23T03:36:41.632Z,100066.20
2024-04-23T03:39:08.252Z,100066.20
2024-04-23T03:41:34.890Z,100067.50
2024-04-23T03:44:01.639Z,100060.67
2024-04-23T03:46:28.506Z,100059.11
2024-04-23T03:48:55.151Z,100058.04
2024-04-23T03:51:21.763Z,100060.15
2024-04-23T03:53:48.344Z,100055.40
2024-04-23T03:56:14.939Z,100054.23
2024-04-23T03:58:41.589Z,100051.59
2024-04-23T04:01:08.280Z,100050.29
2024-04-23T04:03:55.424Z,100048.52
2024-04-23T04:06:22.009Z,100049.52
2024-04-23T04:08:48.630Z,100046.71
2024-04-23T04:11:15.278Z,100040.83
2024-04-23T04:13:42.916Z,100040.38
2024-04-23T04:16:09.794Z,100039.47
2024-04-23T04:18:39.035Z,100040.30
2024-04-23T04:21:06.507Z,100041.83
2024-04-23T04:23:33.330Z,100040.74
2024-04-23T04:26:00.179Z,100032.05
2024-04-23T04:28:27.209Z,100023.90
2024-04-23T04:30:53.843Z,100021.89
2024-04-23T04:33:20.569Z,100021.98
2024-04-23T04:35:47.402Z,100021.59
2024-04-23T04:38:14.263Z,100023.40
2024-04-23T04:40:41.759Z,100024.50
2024-04-23T04:43:08.563Z,100020.30
2024-04-23T04:45:35.420Z,100014.80
2024-04-23T04:48:02.305Z,100018.04
2024-04-23T04:50:29.162Z,100022.11
2024-04-23T04:52:55.842Z,100027.02
2024-04-23T04:55:25.478Z,100032.15
2024-04-23T04:57:53.072Z,100033.87
2024-04-23T05:00:19.751Z,100032.77
2024-04-23T05:02:46.746Z,100030.27
2024-04-23T05:05:13.602Z,100033.02
2024-04-23T05:07:40.447Z,100034.67
2024-04-23T05:10:08.512Z,100033.56
2024-04-23T05:12:38.554Z,100031.66
2024-04-23T05:15:06.335Z,100030.70
2024-04-23T05:17:33.170Z,100030.59
2024-04-23T05:20:00.792Z,100030.15
2024-04-23T05:22:28.731Z,100032.45
2024-04-23T05:24:55.612Z,100026.05
2024-04-23T05:27:22.287Z,100023.91
2024-04-23T05:29:55.094Z,100023.74
2024-04-23T05:32:44.619Z,100022.73
2024-04-23T05:35:13.872Z,100024.13
2024-04-23T05:37:41.217Z,100027.40
2024-04-23T05:40:08.948Z,100028.27
2024-04-23T05:42:35.760Z,100024.52
2024-04-23T05:45:02.908Z,100025.83
2024-04-23T05:47:29.863Z,100019.97
2024-04-23T05:50:34.383Z,100021.39
2024-04-23T05:53:58.871Z,100018.80
2024-04-23T05:56:44.454Z,100021.36
2024-04-23T05:59:11.224Z,100025.27
2024-04-23T06:01:37.980Z,100026.92
2024-04-23T06:04:04.745Z,100024.17
2024-04-23T06:06:31.439Z,100020.77
2024-04-23T06:08:58.161Z,100015.28
2024-04-23T06:11:24.943Z,100013.92
2024-04-23T06:14:06.310Z,100013.56
2024-04-23T06:16:33.042Z,100011.61
2024-04-23T06:18:59.937Z,100011.64
2024-04-23T06:21:26.810Z,100011.61
2024-04-23T06:23:53.554Z,100014.14
2024-04-23T06:26:20.282Z,100012.11
2024-04-23T06:28:47.020Z,100016.71
2024-04-23T06:31:14.176Z,100016.13
2024-04-23T06:33:41.038Z,100016.11
2024-04-23T06:36:09.602Z,100008.14
2024-04-23T06:38:36.333Z,100008.73
2024-04-23T06:41:03.131Z,100011.48
2024-04-23T06:43:30.050Z,100010.52
2024-04-23T06:45:58.588Z,100012.46
2024-04-23T06:48:25.370Z,100017.27
2024-04-23T06:50:52.001Z,100015.55
2024-04-23T06:53:18.865Z,100007.39
2024-04-23T06:55:45.600Z,100011.81
2024-04-23T06:58:12.311Z,100014.00
2024-04-23T07:00:39.060Z,100014.14
2024-04-23T07:03:06.662Z,100005.98
2024-04-23T07:05:33.342Z,100004.11
2024-04-23T07:08:00.023Z,100002.23
2024-04-23T07:10:26.826Z,100003.45
2024-04-23T07:12:54.896Z,99995.28
2024-04-23T07:15:23.175Z,99995.63
2024-04-23T07:17:50.536Z,99992.36
2024-04-23T07:20:17.632Z,99995.10
2024-04-23T07:22:44.438Z,99983.73
2024-04-23T07:25:11.255Z,99986.80
2024-04-23T07:27:37.825Z,99978.52
2024-04-23T07:30:05.579Z,99977.54
2024-04-23T07:32:32.453Z,99971.07
2024-04-23T07:34:59.416Z,99973.48
2024-04-23T07:37:26.177Z,99976.52
2024-04-23T07:39:52.830Z,99978.27
2024-04-23T07:42:19.420Z,99976.46
2024-04-23T07:44:46.430Z,99964.37
2024-04-23T07:47:13.649Z,99955.70
2024-04-23T07:49:41.271Z,99959.25
2024-04-23T07:52:08.085Z,99958.88
2024-04-23T07:54:34.803Z,99956.49
2024-04-23T07:57:01.631Z,99958.63
2024-04-23T07:59:28.388Z,99957.29
2024-04-23T08:01:55.164Z,99959.05
2024-04-23T08:04:21.959Z,99960.73
2024-04-23T08:06:48.690Z,99961.27
2024-04-23T08:09:15.309Z,99959.06
2024-04-23T08:11:42.772Z,99960.80
2024-04-23T08:14:09.613Z,99954.08
2024-04-23T08:16:36.607Z,99949.82
2024-04-23T08:19:03.514Z,99940.51
2024-04-23T08:21:30.772Z,99937.89
2024-04-23T08:23:58.578Z,99946.70
2024-04-23T08:26:26.102Z,99944.25
2024-04-23T08:28:54.442Z,99946.00
2024-04-23T08:31:21.721Z,99938.14
2024-04-23T08:33:48.377Z,99935.25
2024-04-23T08:36:15.108Z,99938.24
2024-04-23T08:38:41.950Z,99926.48
2024-04-23T08:41:15.882Z,99924.01
2024-04-23T08:43:53.446Z,99918.88
2024-04-23T08:46:20.287Z,99917.20
2024-04-23T08:48:47.384Z,99911.21
2024-04-23T08:51:14.203Z,99913.16
2024-04-23T08:53:41.262Z,99903.80
2024-04-23T08:56:13.243Z,99912.55
2024-04-23T08:58:42.345Z,99910.12
2024-04-23T09:01:08.984Z,99902.67
2024-04-23T09:03:40.633Z,99907.59
2024-04-23T09:06:07.666Z,99906.25
2024-04-23T09:08:34.573Z,99910.39
2024-04-23T09:11:01.886Z,99903.64
2024-04-23T09:13:29.595Z,99905.63
2024-04-23T09:15:58.699Z,99902.59
2024-04-23T09:18:25.666Z,99895.98
2024-04-23T09:20:52.617Z,99901.69
2024-04-23T09:23:19.204Z,99902.05
2024-04-23T09:25:48.075Z,99895.69
2024-04-23T09:28:25.024Z,99895.54
2024-04-23T09:30:52.446Z,99886.98
2024-04-23T09:33:30.416Z,99886.96
2024-04-23T09:36:24.006Z,99881.83
2024-04-23T09:38:55.211Z,99875.27
2024-04-23T09:41:22.987Z,99876.30
2024-04-23T09:43:55.309Z,99873.24
2024-04-23T09:46:23.797Z,99877.17
2024-04-23T09:48:54.077Z,99871.52
2024-04-23T09:51:21.761Z,99876.54
2024-04-23T09:53:49.134Z,99876.88
2024-04-23T09:56:20.152Z,99874.09
2024-04-23T09:58:48.051Z,99880.23
2024-04-23T10:01:16.956Z,99878.52
2024-04-23T10:03:45.549Z,99872.41
2024-04-23T10:06:24.619Z,99872.52
2024-04-23T10:09:03.836Z,99869.46
2024-04-23T10:11:38.094Z,99870.44
2024-04-23T10:14:23.871Z,99871.04
2024-04-23T10:17:12.413Z,99871.64
2024-04-23T10:19:39.588Z,99871.30
2024-04-23T10:22:06.801Z,99868.60
2024-04-23T10:24:33.639Z,99866.19
2024-04-23T10:27:01.720Z,99865.78
2024-04-23T10:29:31.521Z,99862.16
2024-04-23T10:31:58.176Z,99860.84
2024-04-23T10:34:26.349Z,99857.34
2024-04-23T10:36:54.442Z,99851.92
2024-04-23T10:39:25.593Z,99853.92
2024-04-23T10:41:53.759Z,99848.98
2024-04-23T10:44:22.946Z,99848.16
2024-04-23T10:46:50.109Z,99838.38
2024-04-23T10:49:17.423Z,99832.01
2024-04-23T10:51:45.712Z,99835.43
2024-04-23T10:54:21.700Z,99842.33
2024-04-23T10:57:11.150Z,99837.14
2024-04-23T10:59:39.680Z,99828.74
2024-04-23T11:02:08.393Z,99833.69
2024-04-23T11:04:48.775Z,99825.04
2024-04-23T11:07:27.058Z,99825.92
2024-04-23T11:10:03.678Z,99825.20
2024-04-23T11:12:33.339Z,99828.80
2024-04-23T11:15:00.417Z,99827.27
2024-04-23T11:17:29.435Z,99823.85
2024-04-23T11:19:57.795Z,99824.17
2024-04-23T11:22:34.756Z,99817.23
2024-04-23T11:25:09.242Z,99816.91
2024-04-23T11:27:36.031Z,99819.94
2024-04-23T11:30:03.071Z,99814.09
2024-04-23T11:32:30.823Z,99817.08
2024-04-23T11:34:57.730Z,99822.00
2024-04-23T11:37:30.073Z,99824.52
2024-04-23T11:39:58.245Z,99823.19
2024-04-23T11:42:34.270Z,99833.66
2024-04-23T11:45:02.355Z,99840.74
2024-04-23T11:47:30.207Z,99844.52
2024-04-23T11:50:00.848Z,99841.71
2024-04-23T11:52:29.309Z,99845.29
2024-04-23T11:54:56.441Z,99843.77
2024-04-23T11:57:23.621Z,99842.08
2024-04-23T11:59:50.549Z,99842.69
2024-04-23T12:02:17.501Z,99839.08
2024-04-23T12:04:45.575Z,99833.63
2024-04-23T12:07:13.743Z,99833.16
2024-04-23T12:09:40.692Z,99832.31
2024-04-23T12:12:08.148Z,99833.88
2024-04-23T12:14:35.183Z,99835.29
2024-04-23T12:17:02.934Z,99835.02
2024-04-23T12:19:32.115Z,99839.48
2024-04-23T12:22:00.537Z,99840.95
2024-04-23T12:24:30.838Z,99844.58
2024-04-23T12:26:59.643Z,99858.08
2024-04-23T12:29:32.438Z,99861.59
2024-04-23T12:32:02.673Z,99851.95
2024-04-23T12:34:29.687Z,99843.32
2024-04-23T12:36:56.568Z,99838.73
2024-04-23T12:39:23.517Z,99846.05
2024-04-23T12:41:53.516Z,99844.08
2024-04-23T12:44:23.095Z,99830.25
2024-04-23T12:46:49.867Z,99832.76
2024-04-23T12:49:16.792Z,99833.48
2024-04-23T12:51:43.770Z,99832.71
2024-04-23T12:54:10.671Z,99830.55
2024-04-23T12:56:37.512Z,99835.75
2024-04-23T12:59:06.971Z,99821.70
2024-04-23T13:01:41.987Z,99819.97
2024-04-23T13:04:12.407Z,99812.97
2024-04-23T13:06:39.378Z,99807.20
2024-04-23T13:09:06.676Z,99809.90
2024-04-23T13:11:33.787Z,99806.45
2024-04-23T13:14:00.939Z,99804.52
2024-04-23T13:16:39.069Z,99802.52
2024-04-23T13:19:13.324Z,99801.27
2024-04-23T13:21:40.134Z,99798.62
2024-04-23T13:24:06.984Z,99797.93
2024-04-23T13:26:33.732Z,99798.17
2024-04-23T13:29:01.262Z,99789.93
2024-04-23T13:31:28.145Z,99784.80
2024-04-23T13:33:55.059Z,99785.98
2024-04-23T13:36:24.579Z,99786.67
2024-04-23T13:38:51.227Z,99788.38
2024-04-23T13:41:20.872Z,99793.08
2024-04-23T13:43:50.056Z,99787.50
2024-04-23T13:46:16.955Z,99785.17
2024-04-23T13:48:44.164Z,99779.92
2024-04-23T13:51:11.422Z,99776.14
2024-04-23T13:53:38.124Z,99773.72
2024-04-23T13:56:07.086Z,99767.94
2024-04-23T13:58:34.378Z,99777.04
2024-04-23T14:01:10.716Z,99774.65
2024-04-23T14:03:38.260Z,99781.44
2024-04-23T14:06:05.844Z,99792.80
2024-04-23T14:08:36.260Z,99792.46
2024-04-23T14:11:04.176Z,99791.85
2024-04-23T14:13:34.739Z,99783.48
2024-04-23T14:16:11.691Z,99777.88
2024-04-23T14:18:39.341Z,99781.88
2024-04-23T14:21:06.047Z,99777.23
2024-04-23T14:23:35.873Z,99776.90
2024-04-23T14:26:03.224Z,99780.98
2024-04-23T14:28:34.487Z,99775.69
2024-04-23T14:31:04.161Z,99769.73
2024-04-23T14:33:31.754Z,99771.03
2024-04-23T14:36:05.926Z,99767.27
2024-04-23T14:38:32.934Z,99767.44
2024-04-23T14:41:00.078Z,99769.08
2024-04-23T14:43:27.163Z,99774.77
2024-04-23T14:45:54.416Z,99775.80
2024-04-23T14:48:21.443Z,99780.27
2024-04-23T14:50:51.069Z,99785.43
2024-04-23T14:53:21.590Z,99781.34
2024-04-23T14:55:58.316Z,99783.42
2024-04-23T14:58:25.425Z,99784.33
2024-04-23T15:00:52.562Z,99784.13
2024-04-23T15:03:19.440Z,99781.06
2024-04-23T15:05:46.207Z,99782.87
2024-04-23T15:08:13.585Z,99787.72
2024-04-23T15:10:47.080Z,99789.80
2024-04-23T15:13:13.973Z,99794.12
2024-04-23T15:15:41.295Z,99798.59
2024-04-23T15:18:08.402Z,99798.03
2024-04-23T15:20:43.801Z,99798.30
2024-04-23T15:23:10.452Z,99794.48
2024-04-23T15:25:37.437Z,99793.40
2024-04-23T15:28:04.876Z,99795.41
2024-04-23T15:30:31.579Z,99795.55
2024-04-23T15:32:58.573Z,99795.29
2024-04-23T15:35:25.664Z,99791.88
2024-04-23T15:37:52.609Z,99788.90
2024-04-23T15:40:19.554Z,99787.09
2024-04-23T15:42:46.310Z,99792.81
2024-04-23T15:45:14.677Z,99801.20
2024-04-23T15:47:42.025Z,99804.16
2024-04-23T15:50:09.011Z,99813.86
2024-04-23T15:52:35.918Z,99815.04
2024-04-23T15:55:02.589Z,99816.68
2024-04-23T15:57:29.395Z,99815.92
2024-04-23T15:59:56.138Z,99816.68
2024-04-23T16:02:23.301Z,99819.13
2024-04-23T16:04:50.161Z,99823.47
2024-04-23T16:07:18.742Z,99826.61
2024-04-23T16:09:45.554Z,99826.30
2024-04-23T16:12:12.186Z,99820.61
2024-04-23T16:14:39.052Z,99822.08
2024-04-23T16:17:05.841Z,99826.89
2024-04-23T16:19:32.717Z,99838.66
2024-04-23T16:22:01.500Z,99833.30
2024-04-23T16:24:28.242Z,99833.92
2024-04-23T16:26:57.033Z,99831.38
2024-04-23T16:29:24.899Z,99822.70
2024-04-23T16:31:51.929Z,99817.80
2024-04-23T16:34:18.899Z,99818.01
2024-04-23T16:36:46.667Z,99817.70
2024-04-23T16:39:14.939Z,99819.06
2024-04-23T16:41:42.896Z,99817.51
2024-04-23T16:44:09.704Z,99818.41
2024-04-23T16:46:39.831Z,99818.77
2024-04-23T16:49:06.628Z,99820.01
2024-04-23T16:51:33.244Z,99819.83
2024-04-23T16:54:03.916Z,99816.30
2024-04-23T16:56:30.923Z,99814.81
2024-04-23T16:58:57.555Z,99817.15
2024-04-23T17:01:24.219Z,99816.25
2024-04-23T17:03:51.033Z,99820.75
2024-04-23T17:06:17.873Z,99818.81
2024-04-23T17:08:45.020Z,99819.68
2024-04-23T17:11:11.838Z,99817.05
2024-04-23T17:13:38.871Z,99817.20
2024-04-23T17:16:16.331Z,99813.39
2024-04-23T17:18:43.689Z,99817.27
2024-04-23T17:21:14.534Z,99816.14
2024-04-23T17:23:41.538Z,99814.91
2024-04-23T17:26:08.534Z,99814.55
2024-04-23T17:28:35.255Z,99816.78
2024-04-23T17:31:03.404Z,99816.05
2024-04-23T17:33:32.648Z,99813.59
2024-04-23T17:35:59.947Z,99809.14
2024-04-23T17:38:27.158Z,99808.02
2024-04-23T17:40:56.918Z,99809.64
2024-04-23T17:43:23.648Z,99811.67
2024-04-23T17:45:50.923Z,99814.85
2024-04-23T17:48:17.930Z,99819.65
2024-04-23T17:50:44.791Z,99824.77
2024-04-23T17:53:11.420Z,99826.46
2024-04-23T17:55:38.574Z,99829.39
2024-04-23T17:58:05.450Z,99828.42
2024-04-23T18:00:32.184Z,99833.80
2024-04-23T18:02:58.883Z,99837.55
2024-04-23T18:05:25.669Z,99845.21
2024-04-23T18:07:52.498Z,99841.75
2024-04-23T18:10:19.320Z,99846.05
2024-04-23T18:12:47.160Z,99849.68
2024-04-23T18:15:13.987Z,99850.38
2024-04-23T18:17:40.890Z,99856.39
2024-04-23T18:20:08.569Z,99856.14
2024-04-23T18:22:37.130Z,99860.61
2024-04-23T18:25:04.504Z,99862.50
2024-04-23T18:27:34.315Z,99866.66
2024-04-23T18:30:01.025Z,99871.52
2024-04-23T18:32:28.800Z,99875.54
2024-04-23T18:34:55.591Z,99879.33
2024-04-23T18:37:22.377Z,99878.57
2024-04-23T18:39:49.187Z,99876.05
2024-04-23T18:42:15.973Z,99879.02
2024-04-23T18:44:42.800Z,99880.53
2024-04-23T18:47:09.463Z,99882.40
2024-04-23T18:49:36.273Z,99886.08
2024-04-23T18:52:03.262Z,99888.45
2024-04-23T18:54:30.074Z,99889.25
2024-04-23T18:56:56.899Z,99893.83
2024-04-23T18:59:24.406Z,99890.76
2024-04-23T19:01:51.349Z,99893.05
2024-04-23T19:04:18.071Z,99891.95
2024-04-23T19:06:44.782Z,99888.30
2024-04-23T19:09:11.417Z,99886.79
2024-04-23T19:11:38.430Z,99888.54
2024-04-23T19:14:14.354Z,99883.17
2024-04-23T19:16:45.648Z,99890.23
2024-04-23T19:19:12.895Z,99888.45
2024-04-23T19:21:39.773Z,99889.85
2024-04-23T19:24:07.983Z,99889.95
2024-04-23T19:26:34.881Z,99892.48
2024-04-23T19:29:01.951Z,99888.14
2024-04-23T19:31:28.976Z,99888.06
2024-04-23T19:33:55.731Z,99886.01
2024-04-23T19:36:28.139Z,99887.06
2024-04-23T19:38:54.840Z,99882.05
2024-04-23T19:41:21.742Z,99883.92
2024-04-23T19:43:52.903Z,99883.58
2024-04-23T19:46:24.508Z,99884.20
2024-04-23T19:48:52.336Z,99884.25
2024-04-23T19:51:22.167Z,99883.95
2024-04-23T19:53:49.892Z,99881.35
2024-04-23T19:56:55.565Z,99880.70
2024-04-23T19:59:22.565Z,99877.49
2024-04-23T20:01:49.558Z,99876.62
2024-04-23T20:04:19.351Z,99874.89
2024-04-23T20:06:46.241Z,99871.48
2024-04-23T20:09:15.141Z,99872.80
2024-04-23T20:11:42.710Z,99873.42
2024-04-23T20:14:09.541Z,99872.63
2024-04-23T20:16:36.351Z,99871.52
2024-04-23T20:19:03.094Z,99869.95
2024-04-23T20:21:29.835Z,99868.55
2024-04-23T20:23:56.721Z,99871.08
2024-04-23T20:26:24.726Z,99870.32
2024-04-23T20:28:53.102Z,99868.34
2024-04-23T20:31:20.162Z,99867.30
2024-04-23T20:33:48.600Z,99870.67
2024-04-23T20:36:16.507Z,99868.70
2024-04-23T20:38:43.583Z,99866.20
2024-04-23T20:41:10.398Z,99870.76
2024-04-23T20:43:37.843Z,99870.34
2024-04-23T20:46:06.884Z,99876.48
2024-04-23T20:48:34.384Z,99872.87
2024-04-23T20:51:01.916Z,99872.30
2024-04-23T20:53:28.909Z,99873.98
2024-04-23T20:55:55.692Z,99876.69
2024-04-23T20:58:22.442Z,99875.85
2024-04-23T21:00:49.983Z,99877.89
2024-04-23T21:03:17.369Z,99880.64
2024-04-23T21:05:46.728Z,99877.19
2024-04-23T21:08:15.130Z,99876.32
2024-04-23T21:10:41.921Z,99878.02
2024-04-23T21:13:08.656Z,99877.80
2024-04-23T21:15:35.744Z,99878.80
2024-04-23T21:18:02.911Z,99878.08
2024-04-23T21:20:29.888Z,99878.55
2024-04-23T21:22:59.587Z,99878.53
2024-04-23T21:25:26.910Z,99885.86
2024-04-23T21:27:53.554Z,99885.41
2024-04-23T21:30:20.180Z,99882.17
2024-04-23T21:32:46.989Z,99883.25
2024-04-23T21:35:13.815Z,99880.43
2024-04-23T21:37:40.608Z,99880.71
2024-04-23T21:40:08.227Z,99881.63
2024-04-23T21:42:41.085Z,99884.85
2024-04-23T21:45:09.153Z,99885.32
2024-04-23T21:47:36.290Z,99885.31
2024-04-23T21:50:03.518Z,99890.05
2024-04-23T21:52:39.576Z,99891.27
2024-04-23T21:55:09.438Z,99890.19
2024-04-23T21:57:36.315Z,99888.69
2024-04-23T22:00:03.855Z,99888.08
2024-04-23T22:02:36.827Z,99890.52
2024-04-23T22:05:06.719Z,99887.87
2024-04-23T22:07:33.859Z,99884.83
2024-04-23T22:10:00.512Z,99884.61
2024-04-23T22:12:27.790Z,99884.95
2024-04-23T22:14:54.428Z,99880.11
2024-04-23T22:17:21.294Z,99882.42
2024-04-23T22:19:48.157Z,99879.69
2024-04-23T22:22:14.795Z,99872.60
2024-04-23T22:24:42.905Z,99870.15
2024-04-23T22:27:10.127Z,99870.14
2024-04-23T22:29:36.767Z,99867.50
2024-04-23T22:32:03.538Z,99865.93
2024-04-23T22:34:30.363Z,99862.55
2024-04-23T22:36:58.918Z,99862.97
2024-04-23T22:39:25.530Z,99859.66
2024-04-23T22:41:52.146Z,99859.91
2024-04-23T22:44:18.902Z,99863.55
2024-04-23T22:46:45.718Z,99859.13
2024-04-23T22:49:13.222Z,99861.06
2024-04-23T22:51:42.919Z,99856.67
2024-04-23T22:54:09.538Z,99860.44
2024-04-23T22:56:36.134Z,99861.95
2024-04-23T22:59:02.743Z,99861.35
2024-04-23T23:01:29.385Z,99858.78
2024-04-23T23:03:56.090Z,99853.08
2024-04-23T23:06:22.896Z,99847.02
2024-04-23T23:08:49.535Z,99845.06
2024-04-23T23:11:16.287Z,99845.59
2024-04-23T23:13:42.944Z,99843.59
2024-04-23T23:16:10.022Z,99840.98
2024-04-23T23:18:36.754Z,99838.58
2024-04-23T23:21:03.548Z,99831.42
2024-04-23T23:23:30.251Z,99832.81
2024-04-23T23:25:56.961Z,99829.70
2024-04-23T23:28:23.573Z,99826.01
2024-04-23T23:30:50.271Z,99821.10
2024-04-23T23:33:16.982Z,99820.06
2024-04-23T23:35:43.615Z,99821.38
2024-04-23T23:38:10.272Z,99817.08
2024-04-23T23:40:36.875Z,99818.33
2024-04-23T23:43:03.771Z,99813.64
2024-04-23T23:45:30.536Z,99810.55
2024-04-23T23:47:57.320Z,99807.16
2024-04-23T23:50:24.119Z,99807.51
2024-04-23T23:52:50.752Z,99805.13
2024-04-23T23:55:17.421Z,99800.79
2024-04-23T23:57:44.059Z,99795.33
